sensor_id;sensor_type;location;lat;lon;timestamp;P1;durP1;ratioP1;P2;durP2;ratioP2
3267;SDS011;1646;52.450;13.326;2023-01-28T00:01:11;5.40;;;3.13;;
3267;SDS011;1646;52.450;13.326;2023-01-28T00:06:11;4.40;;;2.67;;
3267;SDS011;1646;52.450;13.326;2023-01-28T00:11:12;6.13;;;2.57;;
3267;SDS011;1646;52.450;13.326;2023-01-28T00:16:10;6.70;;;3.10;;
3267;SDS011;1646;52.450;13.326;2023-01-28T00:21:09;9.30;;;2.77;;
3267;SDS011;1646;52.450;13.326;2023-01-28T00:26:11;10.70;;;3.47;;
3267;SDS011;1646;52.450;13.326;2023-01-28T00:31:13;5.50;;;2.70;;
3267;SDS011;1646;52.450;13.326;2023-01-28T00:36:13;9.53;;;3.20;;
3267;SDS011;1646;52.450;13.326;2023-01-28T00:41:15;5.30;;;2.97;;
3267;SDS011;1646;52.450;13.326;2023-01-28T00:46:20;9.90;;;3.30;;
3267;SDS011;1646;52.450;13.326;2023-01-28T00:51:19;7.90;;;2.90;;
3267;SDS011;1646;52.450;13.326;2023-01-28T00:56:19;4.70;;;2.80;;
3267;SDS011;1646;52.450;13.326;2023-01-28T01:01:18;8.77;;;3.90;;
3267;SDS011;1646;52.450;13.326;2023-01-28T01:06:19;7.90;;;3.30;;
3267;SDS011;1646;52.450;13.326;2023-01-28T01:11:18;9.40;;;3.20;;
3267;SDS011;1646;52.450;13.326;2023-01-28T01:16:18;9.30;;;3.47;;
3267;SDS011;1646;52.450;13.326;2023-01-28T01:21:18;9.27;;;2.87;;
3267;SDS011;1646;52.450;13.326;2023-01-28T01:26:18;12.17;;;3.70;;
3267;SDS011;1646;52.450;13.326;2023-01-28T01:31:19;7.23;;;2.30;;
3267;SDS011;1646;52.450;13.326;2023-01-28T01:36:19;5.17;;;2.87;;
3267;SDS011;1646;52.450;13.326;2023-01-28T01:41:22;6.23;;;3.00;;
3267;SDS011;1646;52.450;13.326;2023-01-28T01:46:25;7.43;;;3.40;;
3267;SDS011;1646;52.450;13.326;2023-01-28T01:51:29;7.63;;;3.60;;
3267;SDS011;1646;52.450;13.326;2023-01-28T01:56:34;7.90;;;3.20;;
3267;SDS011;1646;52.450;13.326;2023-01-28T02:01:38;6.50;;;3.30;;
3267;SDS011;1646;52.450;13.326;2023-01-28T02:06:37;6.17;;;3.30;;
3267;SDS011;1646;52.450;13.326;2023-01-28T02:11:38;8.80;;;2.77;;
3267;SDS011;1646;52.450;13.326;2023-01-28T02:16:37;7.70;;;3.40;;
3267;SDS011;1646;52.450;13.326;2023-01-28T02:27:08;6.63;;;3.03;;
3267;SDS011;1646;52.450;13.326;2023-01-28T02:32:18;8.37;;;2.57;;
3267;SDS011;1646;52.450;13.326;2023-01-28T02:37:24;6.17;;;2.63;;
3267;SDS011;1646;52.450;13.326;2023-01-28T02:42:26;6.63;;;2.37;;
3267;SDS011;1646;52.450;13.326;2023-01-28T02:47:28;4.97;;;2.93;;
3267;SDS011;1646;52.450;13.326;2023-01-28T02:52:46;4.67;;;2.50;;
3267;SDS011;1646;52.450;13.326;2023-01-28T02:58:12;7.33;;;2.93;;
3267;SDS011;1646;52.450;13.326;2023-01-28T03:03:20;4.40;;;3.00;;
3267;SDS011;1646;52.450;13.326;2023-01-28T03:08:21;4.37;;;2.40;;
3267;SDS011;1646;52.450;13.326;2023-01-28T03:13:33;5.83;;;2.90;;
3267;SDS011;1646;52.450;13.326;2023-01-28T03:18:51;5.00;;;2.50;;
3267;SDS011;1646;52.450;13.326;2023-01-28T03:24:08;4.73;;;2.37;;
3267;SDS011;1646;52.450;13.326;2023-01-28T03:29:31;4.83;;;2.43;;
3267;SDS011;1646;52.450;13.326;2023-01-28T03:34:51;6.70;;;2.87;;
3267;SDS011;1646;52.450;13.326;2023-01-28T03:40:09;3.53;;;2.47;;
3267;SDS011;1646;52.450;13.326;2023-01-28T03:45:08;7.57;;;2.80;;
3267;SDS011;1646;52.450;13.326;2023-01-28T03:50:11;6.90;;;2.80;;
3267;SDS011;1646;52.450;13.326;2023-01-28T03:55:24;6.20;;;2.93;;
3267;SDS011;1646;52.450;13.326;2023-01-28T04:00:23;5.10;;;2.50;;
3267;SDS011;1646;52.450;13.326;2023-01-28T04:05:24;11.93;;;3.23;;
3267;SDS011;1646;52.450;13.326;2023-01-28T04:10:26;4.57;;;2.30;;
3267;SDS011;1646;52.450;13.326;2023-01-28T04:15:34;4.93;;;2.83;;
3267;SDS011;1646;52.450;13.326;2023-01-28T04:20:34;5.73;;;2.47;;
3267;SDS011;1646;52.450;13.326;2023-01-28T04:25:33;7.10;;;2.90;;
3267;SDS011;1646;52.450;13.326;2023-01-28T04:30:35;4.00;;;2.10;;
3267;SDS011;1646;52.450;13.326;2023-01-28T04:35:55;3.60;;;1.97;;
3267;SDS011;1646;52.450;13.326;2023-01-28T04:41:11;3.50;;;1.40;;
3267;SDS011;1646;52.450;13.326;2023-01-28T04:46:10;4.13;;;1.83;;
3267;SDS011;1646;52.450;13.326;2023-01-28T04:51:13;5.50;;;1.63;;
3267;SDS011;1646;52.450;13.326;2023-01-28T04:56:36;6.40;;;2.03;;
3267;SDS011;1646;52.450;13.326;2023-01-28T05:01:35;3.00;;;1.77;;
3267;SDS011;1646;52.450;13.326;2023-01-28T05:06:35;6.50;;;1.80;;
3267;SDS011;1646;52.450;13.326;2023-01-28T05:11:45;4.97;;;1.97;;
3267;SDS011;1646;52.450;13.326;2023-01-28T05:16:44;3.07;;;2.10;;
3267;SDS011;1646;52.450;13.326;2023-01-28T05:21:44;1.80;;;1.70;;
3267;SDS011;1646;52.450;13.326;2023-01-28T05:26:57;3.40;;;1.80;;
3267;SDS011;1646;52.450;13.326;2023-01-28T05:31:56;5.40;;;1.83;;
3267;SDS011;1646;52.450;13.326;2023-01-28T05:36:56;2.97;;;2.00;;
3267;SDS011;1646;52.450;13.326;2023-01-28T05:42:03;2.50;;;1.60;;
3267;SDS011;1646;52.450;13.326;2023-01-28T05:47:04;3.03;;;2.13;;
3267;SDS011;1646;52.450;13.326;2023-01-28T05:52:24;3.07;;;2.00;;
3267;SDS011;1646;52.450;13.326;2023-01-28T05:57:22;4.73;;;2.40;;
3267;SDS011;1646;52.450;13.326;2023-01-28T06:02:21;5.13;;;2.67;;
3267;SDS011;1646;52.450;13.326;2023-01-28T06:07:24;7.93;;;3.73;;
3267;SDS011;1646;52.450;13.326;2023-01-28T06:12:23;10.40;;;4.50;;
3267;SDS011;1646;52.450;13.326;2023-01-28T06:17:39;12.27;;;5.43;;
3267;SDS011;1646;52.450;13.326;2023-01-28T06:22:51;12.20;;;6.13;;
3267;SDS011;1646;52.450;13.326;2023-01-28T06:27:50;15.17;;;7.40;;
3267;SDS011;1646;52.450;13.326;2023-01-28T06:32:52;17.33;;;8.30;;
3267;SDS011;1646;52.450;13.326;2023-01-28T06:37:52;15.07;;;7.73;;
3267;SDS011;1646;52.450;13.326;2023-01-28T06:42:50;13.90;;;7.47;;
3267;SDS011;1646;52.450;13.326;2023-01-28T06:47:49;18.60;;;7.47;;
3267;SDS011;1646;52.450;13.326;2023-01-28T06:52:47;17.47;;;7.37;;
3267;SDS011;1646;52.450;13.326;2023-01-28T06:57:46;24.67;;;7.33;;
3267;SDS011;1646;52.450;13.326;2023-01-28T07:02:45;11.03;;;5.57;;
3267;SDS011;1646;52.450;13.326;2023-01-28T07:07:43;13.30;;;7.10;;
3267;SDS011;1646;52.450;13.326;2023-01-28T07:12:42;13.00;;;5.40;;
3267;SDS011;1646;52.450;13.326;2023-01-28T07:17:42;8.00;;;3.93;;
3267;SDS011;1646;52.450;13.326;2023-01-28T07:22:41;13.87;;;5.50;;
3267;SDS011;1646;52.450;13.326;2023-01-28T07:27:44;9.57;;;5.37;;
3267;SDS011;1646;52.450;13.326;2023-01-28T07:32:45;12.67;;;5.50;;
3267;SDS011;1646;52.450;13.326;2023-01-28T07:37:49;14.67;;;5.60;;
3267;SDS011;1646;52.450;13.326;2023-01-28T07:42:49;11.40;;;5.77;;
3267;SDS011;1646;52.450;13.326;2023-01-28T07:47:55;9.40;;;4.83;;
3267;SDS011;1646;52.450;13.326;2023-01-28T07:52:54;9.97;;;5.43;;
3267;SDS011;1646;52.450;13.326;2023-01-28T07:57:53;8.30;;;5.27;;
3267;SDS011;1646;52.450;13.326;2023-01-28T08:02:56;10.80;;;4.63;;
3267;SDS011;1646;52.450;13.326;2023-01-28T08:07:55;10.57;;;4.57;;
3267;SDS011;1646;52.450;13.326;2023-01-28T08:12:55;10.43;;;5.50;;
3267;SDS011;1646;52.450;13.326;2023-01-28T08:17:56;5.40;;;3.23;;
3267;SDS011;1646;52.450;13.326;2023-01-28T08:23:03;7.80;;;4.23;;
3267;SDS011;1646;52.450;13.326;2023-01-28T08:28:03;5.40;;;2.80;;
3267;SDS011;1646;52.450;13.326;2023-01-28T08:33:03;4.33;;;2.73;;
3267;SDS011;1646;52.450;13.326;2023-01-28T08:38:03;4.80;;;2.97;;
3267;SDS011;1646;52.450;13.326;2023-01-28T08:43:02;5.63;;;2.90;;
3267;SDS011;1646;52.450;13.326;2023-01-28T08:48:01;6.93;;;2.50;;
3267;SDS011;1646;52.450;13.326;2023-01-28T08:53:02;5.90;;;3.23;;
3267;SDS011;1646;52.450;13.326;2023-01-28T08:58:03;7.20;;;3.20;;
3267;SDS011;1646;52.450;13.326;2023-01-28T09:03:04;6.67;;;3.57;;
3267;SDS011;1646;52.450;13.326;2023-01-28T09:08:03;4.60;;;3.20;;
3267;SDS011;1646;52.450;13.326;2023-01-28T09:13:03;7.77;;;3.40;;
3267;SDS011;1646;52.450;13.326;2023-01-28T09:18:03;5.80;;;2.60;;
3267;SDS011;1646;52.450;13.326;2023-01-28T09:23:02;5.00;;;2.97;;
3267;SDS011;1646;52.450;13.326;2023-01-28T09:28:00;6.10;;;2.90;;
3267;SDS011;1646;52.450;13.326;2023-01-28T09:32:59;3.83;;;2.13;;
3267;SDS011;1646;52.450;13.326;2023-01-28T09:37:58;6.70;;;1.63;;
3267;SDS011;1646;52.450;13.326;2023-01-28T09:42:59;1.93;;;1.73;;
3267;SDS011;1646;52.450;13.326;2023-01-28T09:48:09;2.60;;;1.70;;
3267;SDS011;1646;52.450;13.326;2023-01-28T09:53:17;2.93;;;1.23;;
3267;SDS011;1646;52.450;13.326;2023-01-28T09:58:17;3.03;;;1.33;;
3267;SDS011;1646;52.450;13.326;2023-01-28T10:03:24;2.97;;;1.67;;
3267;SDS011;1646;52.450;13.326;2023-01-28T10:08:40;5.53;;;1.90;;
3267;SDS011;1646;52.450;13.326;2023-01-28T10:13:51;1.10;;;1.00;;
3267;SDS011;1646;52.450;13.326;2023-01-28T10:18:59;2.10;;;0.80;;
3267;SDS011;1646;52.450;13.326;2023-01-28T10:24:04;4.50;;;1.00;;
3267;SDS011;1646;52.450;13.326;2023-01-28T10:29:10;1.73;;;1.00;;
3267;SDS011;1646;52.450;13.326;2023-01-28T10:34:11;1.07;;;0.87;;
3267;SDS011;1646;52.450;13.326;2023-01-28T10:39:10;5.23;;;1.10;;
3267;SDS011;1646;52.450;13.326;2023-01-28T10:44:12;4.87;;;2.40;;
3267;SDS011;1646;52.450;13.326;2023-01-28T10:49:15;8.47;;;2.73;;
3267;SDS011;1646;52.450;13.326;2023-01-28T10:54:21;2.23;;;1.77;;
3267;SDS011;1646;52.450;13.326;2023-01-28T10:59:22;1.60;;;0.80;;
3267;SDS011;1646;52.450;13.326;2023-01-28T11:04:24;0.77;;;0.70;;
3267;SDS011;1646;52.450;13.326;2023-01-28T11:09:25;1.00;;;0.80;;
3267;SDS011;1646;52.450;13.326;2023-01-28T11:14:26;7.13;;;0.90;;
3267;SDS011;1646;52.450;13.326;2023-01-28T11:19:26;2.17;;;1.30;;
3267;SDS011;1646;52.450;13.326;2023-01-28T11:24:32;3.07;;;1.10;;
3267;SDS011;1646;52.450;13.326;2023-01-28T11:29:31;2.33;;;1.47;;
3267;SDS011;1646;52.450;13.326;2023-01-28T11:34:32;10.30;;;1.40;;
3267;SDS011;1646;52.450;13.326;2023-01-28T11:39:33;1.83;;;0.90;;
3267;SDS011;1646;52.450;13.326;2023-01-28T11:44:31;3.60;;;1.20;;
3267;SDS011;1646;52.450;13.326;2023-01-28T11:49:32;3.47;;;0.87;;
3267;SDS011;1646;52.450;13.326;2023-01-28T11:54:43;3.07;;;1.77;;
3267;SDS011;1646;52.450;13.326;2023-01-28T12:00:03;1.27;;;0.70;;
3267;SDS011;1646;52.450;13.326;2023-01-28T12:05:33;2.90;;;1.00;;
3267;SDS011;1646;52.450;13.326;2023-01-28T12:10:49;4.00;;;1.23;;
3267;SDS011;1646;52.450;13.326;2023-01-28T12:21:46;6.33;;;1.60;;
3267;SDS011;1646;52.450;13.326;2023-01-28T12:26:58;0.90;;;0.80;;
3267;SDS011;1646;52.450;13.326;2023-01-28T12:32:23;2.73;;;1.17;;
3267;SDS011;1646;52.450;13.326;2023-01-28T12:37:39;7.37;;;1.33;;
3267;SDS011;1646;52.450;13.326;2023-01-28T12:42:47;3.00;;;1.30;;
3267;SDS011;1646;52.450;13.326;2023-01-28T12:47:52;3.93;;;1.10;;
3267;SDS011;1646;52.450;13.326;2023-01-28T12:52:56;1.63;;;1.30;;
3267;SDS011;1646;52.450;13.326;2023-01-28T12:57:59;2.10;;;1.50;;
3267;SDS011;1646;52.450;13.326;2023-01-28T13:03:01;1.90;;;1.00;;
3267;SDS011;1646;52.450;13.326;2023-01-28T13:08:09;3.50;;;1.20;;
3267;SDS011;1646;52.450;13.326;2023-01-28T13:13:14;4.20;;;2.03;;
3267;SDS011;1646;52.450;13.326;2023-01-28T13:18:32;3.70;;;1.27;;
3267;SDS011;1646;52.450;13.326;2023-01-28T13:23:36;2.60;;;0.90;;
3267;SDS011;1646;52.450;13.326;2023-01-28T13:28:37;3.20;;;0.77;;
3267;SDS011;1646;52.450;13.326;2023-01-28T13:33:36;1.17;;;0.83;;
3267;SDS011;1646;52.450;13.326;2023-01-28T13:38:36;2.60;;;0.80;;
3267;SDS011;1646;52.450;13.326;2023-01-28T13:43:37;2.50;;;1.00;;
3267;SDS011;1646;52.450;13.326;2023-01-28T13:48:40;3.47;;;0.90;;
3267;SDS011;1646;52.450;13.326;2023-01-28T13:53:43;5.30;;;0.90;;
3267;SDS011;1646;52.450;13.326;2023-01-28T13:59:07;0.90;;;0.70;;
3267;SDS011;1646;52.450;13.326;2023-01-28T14:04:40;1.33;;;1.00;;
3267;SDS011;1646;52.450;13.326;2023-01-28T14:10:08;1.27;;;0.70;;
3267;SDS011;1646;52.450;13.326;2023-01-28T14:15:44;2.20;;;1.40;;
3267;SDS011;1646;52.450;13.326;2023-01-28T14:20:50;1.33;;;0.80;;
3267;SDS011;1646;52.450;13.326;2023-01-28T14:26:02;0.97;;;0.60;;
3267;SDS011;1646;52.450;13.326;2023-01-28T14:31:15;1.17;;;0.73;;
3267;SDS011;1646;52.450;13.326;2023-01-28T14:36:21;1.83;;;0.90;;
3267;SDS011;1646;52.450;13.326;2023-01-28T14:41:21;1.50;;;0.90;;
3267;SDS011;1646;52.450;13.326;2023-01-28T14:46:27;2.13;;;1.10;;
3267;SDS011;1646;52.450;13.326;2023-01-28T14:51:34;1.93;;;1.03;;
3267;SDS011;1646;52.450;13.326;2023-01-28T14:56:43;0.70;;;0.60;;
3267;SDS011;1646;52.450;13.326;2023-01-28T15:01:55;0.97;;;0.77;;
3267;SDS011;1646;52.450;13.326;2023-01-28T15:06:56;2.03;;;0.80;;
3267;SDS011;1646;52.450;13.326;2023-01-28T15:11:57;1.33;;;0.93;;
3267;SDS011;1646;52.450;13.326;2023-01-28T15:17:00;2.53;;;1.57;;
3267;SDS011;1646;52.450;13.326;2023-01-28T15:22:01;1.00;;;0.90;;
3267;SDS011;1646;52.450;13.326;2023-01-28T15:27:01;1.20;;;0.97;;
3267;SDS011;1646;52.450;13.326;2023-01-28T15:32:02;2.00;;;1.10;;
3267;SDS011;1646;52.450;13.326;2023-01-28T15:37:01;1.00;;;0.80;;
3267;SDS011;1646;52.450;13.326;2023-01-28T15:42:00;0.80;;;0.77;;
3267;SDS011;1646;52.450;13.326;2023-01-28T15:47:03;4.63;;;1.87;;
3267;SDS011;1646;52.450;13.326;2023-01-28T15:52:12;4.93;;;1.47;;
3267;SDS011;1646;52.450;13.326;2023-01-28T15:57:14;2.57;;;1.60;;
3267;SDS011;1646;52.450;13.326;2023-01-28T16:02:17;5.07;;;2.10;;
3267;SDS011;1646;52.450;13.326;2023-01-28T16:07:17;2.03;;;1.40;;
3267;SDS011;1646;52.450;13.326;2023-01-28T16:12:16;2.50;;;1.13;;
3267;SDS011;1646;52.450;13.326;2023-01-28T16:17:19;1.50;;;1.00;;
3267;SDS011;1646;52.450;13.326;2023-01-28T16:22:21;1.73;;;1.10;;
3267;SDS011;1646;52.450;13.326;2023-01-28T16:27:29;1.63;;;1.00;;
3267;SDS011;1646;52.450;13.326;2023-01-28T16:32:30;1.37;;;0.90;;
3267;SDS011;1646;52.450;13.326;2023-01-28T16:37:31;5.47;;;1.17;;
3267;SDS011;1646;52.450;13.326;2023-01-28T16:42:30;1.50;;;1.03;;
3267;SDS011;1646;52.450;13.326;2023-01-28T16:47:30;5.37;;;1.73;;
3267;SDS011;1646;52.450;13.326;2023-01-28T16:52:28;1.87;;;1.07;;
3267;SDS011;1646;52.450;13.326;2023-01-28T16:57:26;2.00;;;1.17;;
3267;SDS011;1646;52.450;13.326;2023-01-28T17:02:33;1.73;;;1.30;;
3267;SDS011;1646;52.450;13.326;2023-01-28T17:07:32;6.70;;;1.20;;
3267;SDS011;1646;52.450;13.326;2023-01-28T17:12:30;1.77;;;1.57;;
3267;SDS011;1646;52.450;13.326;2023-01-28T17:17:28;2.63;;;1.33;;
3267;SDS011;1646;52.450;13.326;2023-01-28T17:22:28;2.77;;;1.47;;
3267;SDS011;1646;52.450;13.326;2023-01-28T17:27:26;2.20;;;1.03;;
3267;SDS011;1646;52.450;13.326;2023-01-28T17:32:24;9.03;;;4.47;;
3267;SDS011;1646;52.450;13.326;2023-01-28T17:37:23;4.43;;;2.07;;
3267;SDS011;1646;52.450;13.326;2023-01-28T17:42:22;1.67;;;1.03;;
3267;SDS011;1646;52.450;13.326;2023-01-28T17:47:22;2.80;;;1.90;;
3267;SDS011;1646;52.450;13.326;2023-01-28T17:52:21;4.10;;;1.50;;
3267;SDS011;1646;52.450;13.326;2023-01-28T17:57:19;3.77;;;1.17;;
3267;SDS011;1646;52.450;13.326;2023-01-28T18:02:19;3.63;;;1.97;;
3267;SDS011;1646;52.450;13.326;2023-01-28T18:07:17;4.37;;;2.40;;
3267;SDS011;1646;52.450;13.326;2023-01-28T18:12:15;4.23;;;2.23;;
3267;SDS011;1646;52.450;13.326;2023-01-28T18:17:14;2.63;;;1.60;;
3267;SDS011;1646;52.450;13.326;2023-01-28T18:22:13;4.50;;;1.30;;
3267;SDS011;1646;52.450;13.326;2023-01-28T18:27:12;3.47;;;1.77;;
3267;SDS011;1646;52.450;13.326;2023-01-28T18:32:10;2.17;;;1.30;;
3267;SDS011;1646;52.450;13.326;2023-01-28T18:37:08;3.83;;;2.17;;
3267;SDS011;1646;52.450;13.326;2023-01-28T18:42:08;3.37;;;1.93;;
3267;SDS011;1646;52.450;13.326;2023-01-28T18:47:06;2.50;;;1.60;;
3267;SDS011;1646;52.450;13.326;2023-01-28T18:52:05;6.10;;;2.80;;
3267;SDS011;1646;52.450;13.326;2023-01-28T18:57:03;4.33;;;2.30;;
3267;SDS011;1646;52.450;13.326;2023-01-28T19:02:03;5.03;;;2.20;;
3267;SDS011;1646;52.450;13.326;2023-01-28T19:07:01;6.13;;;3.10;;
3267;SDS011;1646;52.450;13.326;2023-01-28T19:12:03;5.30;;;3.23;;
3267;SDS011;1646;52.450;13.326;2023-01-28T19:17:03;7.97;;;3.67;;
3267;SDS011;1646;52.450;13.326;2023-01-28T19:22:02;6.17;;;2.90;;
3267;SDS011;1646;52.450;13.326;2023-01-28T19:27:00;2.40;;;2.20;;
3267;SDS011;1646;52.450;13.326;2023-01-28T19:31:58;3.83;;;2.73;;
3267;SDS011;1646;52.450;13.326;2023-01-28T19:36:58;9.67;;;2.50;;
3267;SDS011;1646;52.450;13.326;2023-01-28T19:41:57;5.10;;;2.70;;
3267;SDS011;1646;52.450;13.326;2023-01-28T19:46:57;5.50;;;2.73;;
3267;SDS011;1646;52.450;13.326;2023-01-28T19:51:56;4.27;;;2.60;;
3267;SDS011;1646;52.450;13.326;2023-01-28T19:56:56;6.20;;;2.57;;
3267;SDS011;1646;52.450;13.326;2023-01-28T20:01:54;4.23;;;2.80;;
3267;SDS011;1646;52.450;13.326;2023-01-28T20:06:53;6.50;;;3.23;;
3267;SDS011;1646;52.450;13.326;2023-01-28T20:11:52;2.93;;;2.67;;
3267;SDS011;1646;52.450;13.326;2023-01-28T20:16:51;4.63;;;2.80;;
3267;SDS011;1646;52.450;13.326;2023-01-28T20:21:49;4.60;;;2.90;;
3267;SDS011;1646;52.450;13.326;2023-01-28T20:26:48;7.23;;;3.30;;
3267;SDS011;1646;52.450;13.326;2023-01-28T20:31:47;6.57;;;3.40;;
3267;SDS011;1646;52.450;13.326;2023-01-28T20:37:06;7.90;;;3.40;;
3267;SDS011;1646;52.450;13.326;2023-01-28T20:42:05;4.97;;;3.07;;
3267;SDS011;1646;52.450;13.326;2023-01-28T20:47:06;7.13;;;3.60;;
3267;SDS011;1646;52.450;13.326;2023-01-28T20:52:05;6.57;;;3.97;;
3267;SDS011;1646;52.450;13.326;2023-01-28T20:57:03;5.67;;;3.10;;
3267;SDS011;1646;52.450;13.326;2023-01-28T21:02:01;9.93;;;3.77;;
3267;SDS011;1646;52.450;13.326;2023-01-28T21:07:02;8.00;;;4.03;;
3267;SDS011;1646;52.450;13.326;2023-01-28T21:12:00;8.70;;;4.03;;
3267;SDS011;1646;52.450;13.326;2023-01-28T21:16:58;12.50;;;4.90;;
3267;SDS011;1646;52.450;13.326;2023-01-28T21:21:57;9.17;;;4.20;;
3267;SDS011;1646;52.450;13.326;2023-01-28T21:26:56;11.93;;;4.90;;
3267;SDS011;1646;52.450;13.326;2023-01-28T21:31:55;11.50;;;4.87;;
3267;SDS011;1646;52.450;13.326;2023-01-28T21:36:53;11.23;;;4.47;;
3267;SDS011;1646;52.450;13.326;2023-01-28T21:41:51;6.33;;;3.87;;
3267;SDS011;1646;52.450;13.326;2023-01-28T21:46:51;11.33;;;5.00;;
3267;SDS011;1646;52.450;13.326;2023-01-28T21:51:49;8.37;;;5.00;;
3267;SDS011;1646;52.450;13.326;2023-01-28T21:56:48;7.37;;;4.50;;
3267;SDS011;1646;52.450;13.326;2023-01-28T22:01:47;9.67;;;4.57;;
3267;SDS011;1646;52.450;13.326;2023-01-28T22:06:47;7.17;;;4.30;;
3267;SDS011;1646;52.450;13.326;2023-01-28T22:11:45;8.20;;;4.60;;
3267;SDS011;1646;52.450;13.326;2023-01-28T22:16:43;8.00;;;4.97;;
3267;SDS011;1646;52.450;13.326;2023-01-28T22:21:42;7.63;;;4.63;;
3267;SDS011;1646;52.450;13.326;2023-01-28T22:26:43;7.30;;;4.53;;
3267;SDS011;1646;52.450;13.326;2023-01-28T22:31:43;8.87;;;4.63;;
3267;SDS011;1646;52.450;13.326;2023-01-28T22:36:42;7.67;;;4.20;;
3267;SDS011;1646;52.450;13.326;2023-01-28T22:41:42;6.67;;;4.53;;
3267;SDS011;1646;52.450;13.326;2023-01-28T22:46:42;9.30;;;4.70;;
3267;SDS011;1646;52.450;13.326;2023-01-28T22:51:40;9.60;;;4.60;;
3267;SDS011;1646;52.450;13.326;2023-01-28T22:56:39;11.07;;;5.10;;
3267;SDS011;1646;52.450;13.326;2023-01-28T23:01:38;6.27;;;4.40;;
3267;SDS011;1646;52.450;13.326;2023-01-28T23:06:37;14.03;;;5.37;;
3267;SDS011;1646;52.450;13.326;2023-01-28T23:11:36;7.73;;;4.67;;
3267;SDS011;1646;52.450;13.326;2023-01-28T23:16:34;10.13;;;5.33;;
3267;SDS011;1646;52.450;13.326;2023-01-28T23:21:52;9.60;;;4.30;;
3267;SDS011;1646;52.450;13.326;2023-01-28T23:27:10;7.83;;;4.57;;
3267;SDS011;1646;52.450;13.326;2023-01-28T23:32:08;11.37;;;5.57;;
3267;SDS011;1646;52.450;13.326;2023-01-28T23:37:09;9.97;;;5.40;;
3267;SDS011;1646;52.450;13.326;2023-01-28T23:42:10;7.67;;;5.47;;
3267;SDS011;1646;52.450;13.326;2023-01-28T23:47:09;9.07;;;5.50;;
3267;SDS011;1646;52.450;13.326;2023-01-28T23:52:09;9.27;;;5.47;;
3267;SDS011;1646;52.450;13.326;2023-01-28T23:57:07;8.70;;;5.27;;
